Main page
Satellite images 15-day forecastsClimateMarine weather Cyclones Lightning AirportsFAQ Newsletter About
Weather : Europe Africa North America South America Asia Australia-Oceania Others
Languages Contact

Waddington, England

RAF

latitude: 53-10N, longitude: 000-31W, elevation: 68 m


METAR: EGXW 230950Z 22009KT CAVOK 15/11 Q1019 BLU NOSIG
TAF: missing

Time: 11:18 (10:18 UTC)

Current weather observation

The report was made 28 minutes ago, at 09:50 UTC  
Wind 09 kt from the Southwest
Temperature 15°C
Humidity 77%
Pressure 1019 hPa
Visibility 10 km or more
no clouds below 1500 m and no cumulonimbus

Change units
The information on this site is subject to a disclaimer
Weather : Europe Africa North America South America Asia Australia-Oceania Others
Satellite images 15-day forecastsClimateMarine weather Cyclones Lightning AirportsFAQ Languages Contact Newsletter About